• Join FlightAware (Why Join?)
  • Login
  • US Flag 
10:24PM EDT


 

Airport Tracker/Info


-or-


 

Live Flight TrackerFlight Track Log ✈ N920AC ✈ 03-Jul-2013 ✈ KAPF - KORL

Flight Track Log - Related Links

Times and Time Zones

All times are in EDT time to prevent confusion due to time zone crossing. See the N920AC flight status page for this flight to view local times or setup timezone preferences in your user account.

Time Position Orientation Groundspeed Altitude Reporting Facility
EDT Latitude Longitude Course Direction KTS MPH feet Rate Location/Type
11:36AM 26.8233 -81.6535 North  Level Estimated
11:37AM 26.8665 -81.6455 North  Level Estimated
11:38AM 26.9098 -81.6376 North  Level Estimated
11:39AM 26.9530 -81.6297 North  Level Estimated
11:40AM 26.9962 -81.6217 North  Level Estimated
11:41AM 27.0395 -81.6138 North  Level Estimated
11:42AM 27.0827 -81.6058 North  Level Estimated
11:43AM 27.1259 -81.5979 North  Level Estimated
11:44AM 27.1691 -81.5899 North  Level Estimated
11:45AM 27.2124 -81.5819 North  Level Estimated
11:46AM 27.2556 -81.5740 North  Level Estimated
11:47AM 27.2988 -81.5660 North  Level Estimated
11:48AM 27.3421 -81.5580 North  Level Estimated
11:49AM 27.3853 -81.5500 North  Level Estimated
11:50AM 27.4285 -81.5420 North  Level Estimated
11:50AM 26.9289 -81.5836 North 98 113 7,600  Level Miami Center
11:51AM 27.4718 -81.5340 North  Level Estimated
11:51AM 26.9564 -81.5708 22° Northeast 98 113 7,500  Level Miami Center
11:52AM 27.5150 -81.5259 North  Level Estimated
11:52AM 26.9819 -81.5600 21° North 103 119 7,500  Level Miami Center
11:53AM 27.5582 -81.5179 North  Level Estimated
11:53AM 27.0136 -81.5519 13° North 122 140 7,500  Level Miami Center
11:54AM 27.6014 -81.5099 North  Level Estimated
11:54AM 27.0408 -81.5439 15° North 116 133 7,400  Level Miami Center
11:55AM 27.6446 -81.5019 North  Level Estimated
11:55AM 27.0703 -81.5358 14° North 111 128 7,300  Level Miami Center
11:56AM 27.6879 -81.4938 North  Level Estimated
11:56AM 27.0997 -81.5322 North 106 122 7,400  Level Miami Center
11:57AM 27.1311 -81.5289 North 106 122 7,400  Level Miami Center
11:58AM 27.1606 -81.5208 14° North 106 122 7,400  Level Miami Center
11:59AM 27.1878 -81.5172 North 106 122 7,400  Level Miami Center
12:00PM 27.2172 -81.5089 14° North 106 122 7,400  Level Miami Center
12:01PM 27.2469 -81.5008 14° North 106 122 7,500  Climbing Miami Center
12:02PM 27.2742 -81.4925 15° North 106 122 7,500  Level Miami Center
12:03PM 27.3036 -81.4844 14° North 106 122 7,500  Level Miami Center
12:04PM 27.3353 -81.4786 North 106 122 7,500 -60 Level Miami Center
12:05PM 27.3647 -81.4728 10° North 106 122 7,400 -60 Descending Miami Center
12:06PM 27.3939 -81.4717 North 106 122 7,400  Level Miami Center
12:07PM 27.4275 -81.4661 North 106 122 7,500  Climbing Miami Center
12:08PM 27.4569 -81.4578 14° North 106 122 7,500  Level Miami Center
12:09PM 27.4842 -81.4519 11° North 106 122 7,500  Level Miami Center
12:10PM 27.5156 -81.4486 North 106 122 7,500  Level Miami Center
12:11PM 27.5453 -81.4403 14° North 106 122 7,500  Level Miami Center
12:12PM 27.5744 -81.4344 10° North 106 122 7,600  Climbing Miami Center
12:13PM 27.6042 -81.4239 17° North 106 122 7,600  Level Miami Center
12:14PM 27.6317 -81.4133 19° North 106 122 7,600  Level Miami Center
12:15PM 27.6592 -81.4003 23° Northeast 106 122 7,600  Level Miami Center
12:16PM 27.6867 -81.3872 23° Northeast 106 122 7,600  Level Miami Center
12:17PM 27.7142 -81.3767 19° North 106 122 7,600  Level Miami Center
12:18PM 27.7417 -81.3636 23° Northeast 106 122 7,600 -60 Level Miami Center
12:19PM 27.7650 -81.3528 22° Northeast 106 122 7,500  Descending Miami Center
12:20PM 27.7944 -81.3447 14° North 111 128 7,600 60 Climbing Miami Center
12:21PM 27.8261 -81.3342 16° North 111 128 7,700  Climbing Miami Center
12:23PM 27.8833 -81.3167 15° North 111 128 7,600 -60 Descending Orlando TRACON
12:24PM 27.9167 -81.3000 24° Northeast 110 127 7,600  Level Orlando TRACON
12:25PM 27.9333 -81.3000 360° North 108 124 7,600  Level Orlando TRACON
12:26PM 27.9667 -81.2833 24° Northeast 109 125 7,600 -240 Level Orlando TRACON
12:27PM 28.0000 -81.2833 360° North 114 131 7,200 -360 Descending Orlando TRACON
12:28PM 28.0167 -81.3000 319° Northwest 118 136 6,900 -480 Descending Orlando TRACON
12:29PM 28.0500 -81.3333 319° Northwest 119 137 6,300 -660 Descending Orlando TRACON
12:30PM 28.0667 -81.3500 319° Northwest 119 137 5,600 -720 Descending Orlando TRACON
12:31PM 28.0833 -81.3833 300° West 118 136 5,000 -660 Descending Orlando TRACON
12:32PM 28.1000 -81.4167 300° West 107 123 4,300 -540 Descending Orlando TRACON
12:33PM 28.1000 -81.4500 270° West 106 122 3,900 -480 Descending Orlando TRACON
12:34PM 28.1000 -81.4833 270° West 108 124 3,500 -300 Descending Orlando TRACON
12:35PM 28.1167 -81.5167 300° West 111 128 3,400  Descending Orlando TRACON
12:36PM 28.1167 -81.5500 270° West 109 125 3,500  Climbing Orlando TRACON
12:37PM 28.1167 -81.5833 270° West 110 127 3,500  Level Orlando TRACON
12:38PM 28.1167 -81.6167 270° West 107 123 3,600  Climbing Orlando TRACON
12:39PM 28.1333 -81.6500 300° West 113 130 3,600 -60 Level Orlando TRACON
12:40PM 28.1500 -81.6833 300° West 120 138 3,500 -60 Descending Orlando TRACON
12:41PM 28.1667 -81.7000 319° Northwest 122 140 3,500  Level Orlando TRACON
12:42PM 28.2000 -81.7333 319° Northwest 112 129 3,500 -60 Level Orlando TRACON
12:43PM 28.2333 -81.7333 360° North 115 132 3,400 -300 Descending Orlando TRACON
12:44PM 28.2500 -81.7500 319° Northwest 110 127 2,900 -480 Descending Orlando TRACON
12:45PM 28.3000 -81.7500 360° North 107 123 2,500 -240 Descending Orlando TRACON
12:46PM 28.3167 -81.7500 360° North 110 127 2,500  Level Orlando TRACON
12:47PM 28.3500 -81.7500 360° North 107 123 2,500  Level Orlando TRACON
12:48PM 28.3833 -81.7333 24° Northeast 110 127 2,500  Level Orlando TRACON
12:49PM 28.4000 -81.7333 360° North 108 124 2,500  Level Orlando TRACON
12:50PM 28.4333 -81.7167 24° Northeast 104 120 2,500 -60 Level Orlando TRACON
12:51PM 28.4500 -81.7000 41° Northeast 93 107 2,400  Descending Orlando TRACON
12:52PM 28.4667 -81.6833 41° Northeast 98 113 2,500  Climbing Orlando TRACON
12:53PM 28.5000 -81.6667 24° Northeast 104 120 2,500  Level Orlando TRACON
12:54PM 28.5167 -81.6500 41° Northeast 105 121 2,600 -60 Climbing Orlando TRACON
12:55PM 28.5500 -81.6333 24° Northeast 103 119 2,400 -120 Descending Orlando TRACON
12:56PM 28.5667 -81.6000 60° Northeast 101 116 2,400  Level Orlando TRACON
12:57PM 28.5833 -81.5833 41° Northeast 93 107 2,400  Level Orlando TRACON
12:58PM 28.5833 -81.5500 90° East 84 97 2,400 -60 Level Orlando TRACON
12:59PM 28.5833 -81.5167 90° East 87 100 2,300 -60 Descending Orlando TRACON
01:00PM 28.5833 -81.5000 90° East 90 104 2,300 -180 Level Orlando TRACON
01:01PM 28.5667 -81.4667 120° Southeast 88 101 2,000 -420 Descending Orlando TRACON
01:02PM 28.5667 -81.4500 90° East 86 99 1,500 -300 Descending Orlando TRACON
01:03PM 28.5667 -81.4167 90° East 91 105 1,400 -300 Descending Orlando TRACON
01:04PM 28.5500 -81.3833 120° Southeast 88 101 1,000 -300 Descending Orlando TRACON
01:05PM 28.5500 -81.3667 90° East 82 94 800 -300 Descending Orlando TRACON
01:06PM 28.5333 -81.3500 139° Southeast 60 69 400 -420 Descending Orlando TRACON
01:08PM 28.5455 -81.3329 104° East  Level Estimated
01:15PM 28.5455 -81.3329 104° East  Level Estimated
01:16PM 28.5455 -81.3329 104° East  Level Estimated
01:17PM 28.5455 -81.3329 104° East  Level Estimated
01:18PM 28.5455 -81.3329 104° East  Level Estimated
01:19PM 28.5455 -81.3329 104° East  Level Estimated
01:20PM 28.5455 -81.3329 104° East  Level Estimated
01:21PM 28.5455 -81.3329 104° East  Level Estimated
01:22PM 28.5455 -81.3329 104° East  Level Estimated
01:23PM 28.5455 -81.3329 104° East  Level Estimated